Terminal Aerodrome Forecast
Issued by NWS

Home | Current Version | Previous Version | Text Only | Print | Product List | Glossary Off
Versions: 1 2 3 4 5 6 7 8 9 10 11 12 13 14 15 16

000
FTUS43 KIWX 041037 AAA
TAFSBN
TAF AMD
KSBN 041037Z 0411/0506 25008KT 4SM SHRA BR BKN005 OVC020
     FM041200 33014G22KT 3SM -RA BR OVC007
     FM041500 34020G30KT P6SM OVC010
     FM050200 34013G22KT P6SM OVC010=

USA.gov is the U.S. government's official web portal to all federal, state and local government web resources and services.